sensor_id;sensor_type;location;lat;lon;timestamp;pressure;altitude;pressure_sealevel;temperature;humidity
56568;BME280;42456;49.956;20.004;2023-02-13T00:00:20;100300.41;;;1.11;82.88
56568;BME280;42456;49.956;20.004;2023-02-13T00:02:47;100302.50;;;1.09;82.85
56568;BME280;42456;49.956;20.004;2023-02-13T00:05:14;100305.41;;;1.07;83.14
56568;BME280;42456;49.956;20.004;2023-02-13T00:07:41;100305.83;;;1.08;83.40
56568;BME280;42456;49.956;20.004;2023-02-13T00:10:08;100303.86;;;1.09;83.11
56568;BME280;42456;49.956;20.004;2023-02-13T00:12:35;100311.46;;;1.10;83.21
56568;BME280;42456;49.956;20.004;2023-02-13T00:15:03;100309.07;;;1.12;82.75
56568;BME280;42456;49.956;20.004;2023-02-13T00:17:30;100306.20;;;1.15;83.10
56568;BME280;42456;49.956;20.004;2023-02-13T00:19:57;100305.89;;;1.17;82.96
56568;BME280;42456;49.956;20.004;2023-02-13T00:22:25;100309.73;;;1.20;82.74
56568;BME280;42456;49.956;20.004;2023-02-13T00:24:51;100311.57;;;1.23;82.83
56568;BME280;42456;49.956;20.004;2023-02-13T00:27:18;100303.33;;;1.25;82.63
56568;BME280;42456;49.956;20.004;2023-02-13T00:29:45;100303.91;;;1.28;82.63
56568;BME280;42456;49.956;20.004;2023-02-13T00:32:13;100302.86;;;1.31;83.22
56568;BME280;42456;49.956;20.004;2023-02-13T00:34:40;100311.98;;;1.32;82.81
56568;BME280;42456;49.956;20.004;2023-02-13T00:37:07;100304.86;;;1.35;83.11
56568;BME280;42456;49.956;20.004;2023-02-13T00:39:34;100291.02;;;1.37;82.67
56568;BME280;42456;49.956;20.004;2023-02-13T00:42:01;100288.98;;;1.38;82.46
56568;BME280;42456;49.956;20.004;2023-02-13T00:44:28;100283.95;;;1.38;83.05
56568;BME280;42456;49.956;20.004;2023-02-13T00:46:55;100288.89;;;1.40;83.07
56568;BME280;42456;49.956;20.004;2023-02-13T00:49:22;100294.30;;;1.42;82.66
56568;BME280;42456;49.956;20.004;2023-02-13T00:51:49;100291.52;;;1.44;82.84
56568;BME280;42456;49.956;20.004;2023-02-13T00:54:15;100289.95;;;1.45;83.08
56568;BME280;42456;49.956;20.004;2023-02-13T00:56:42;100287.42;;;1.44;83.01
56568;BME280;42456;49.956;20.004;2023-02-13T00:59:09;100281.28;;;1.43;82.87
56568;BME280;42456;49.956;20.004;2023-02-13T01:01:36;100279.05;;;1.41;82.13
56568;BME280;42456;49.956;20.004;2023-02-13T01:04:03;100275.98;;;1.41;82.26
56568;BME280;42456;49.956;20.004;2023-02-13T01:06:31;100272.00;;;1.41;82.82
56568;BME280;42456;49.956;20.004;2023-02-13T01:08:57;100269.75;;;1.42;83.17
56568;BME280;42456;49.956;20.004;2023-02-13T01:11:24;100264.36;;;1.43;83.28
56568;BME280;42456;49.956;20.004;2023-02-13T01:13:51;100258.84;;;1.44;83.29
56568;BME280;42456;49.956;20.004;2023-02-13T01:16:18;100251.34;;;1.46;83.37
56568;BME280;42456;49.956;20.004;2023-02-13T01:18:45;100247.90;;;1.48;83.67
56568;BME280;42456;49.956;20.004;2023-02-13T01:21:21;100244.25;;;1.50;83.27
56568;BME280;42456;49.956;20.004;2023-02-13T01:23:49;100242.65;;;1.51;83.22
56568;BME280;42456;49.956;20.004;2023-02-13T01:26:22;100244.48;;;1.54;83.42
56568;BME280;42456;49.956;20.004;2023-02-13T01:28:53;100247.52;;;1.56;83.33
56568;BME280;42456;49.956;20.004;2023-02-13T01:31:21;100247.77;;;1.59;83.51
56568;BME280;42456;49.956;20.004;2023-02-13T01:33:48;100243.60;;;1.62;83.35
56568;BME280;42456;49.956;20.004;2023-02-13T01:36:15;100242.39;;;1.66;83.70
56568;BME280;42456;49.956;20.004;2023-02-13T01:38:42;100240.67;;;1.69;83.22
56568;BME280;42456;49.956;20.004;2023-02-13T01:41:09;100234.96;;;1.72;83.49
56568;BME280;42456;49.956;20.004;2023-02-13T01:43:46;100231.63;;;1.74;83.54
56568;BME280;42456;49.956;20.004;2023-02-13T01:46:21;100227.60;;;1.76;82.96
56568;BME280;42456;49.956;20.004;2023-02-13T01:48:50;100224.31;;;1.78;83.11
56568;BME280;42456;49.956;20.004;2023-02-13T01:51:25;100225.17;;;1.80;83.35
56568;BME280;42456;49.956;20.004;2023-02-13T01:53:58;100226.09;;;1.83;83.44
56568;BME280;42456;49.956;20.004;2023-02-13T01:56:33;100223.46;;;1.86;83.30
56568;BME280;42456;49.956;20.004;2023-02-13T01:59:07;100218.65;;;1.88;83.34
56568;BME280;42456;49.956;20.004;2023-02-13T02:01:35;100212.67;;;1.89;83.23
56568;BME280;42456;49.956;20.004;2023-02-13T02:04:07;100207.29;;;1.90;83.36
56568;BME280;42456;49.956;20.004;2023-02-13T02:06:40;100205.57;;;1.91;83.06
56568;BME280;42456;49.956;20.004;2023-02-13T02:09:11;100205.46;;;1.93;83.37
56568;BME280;42456;49.956;20.004;2023-02-13T02:11:59;100200.08;;;1.94;83.12
56568;BME280;42456;49.956;20.004;2023-02-13T02:14:42;100196.33;;;1.97;83.36
56568;BME280;42456;49.956;20.004;2023-02-13T02:17:10;100193.73;;;1.99;83.07
56568;BME280;42456;49.956;20.004;2023-02-13T02:20:03;100192.15;;;2.02;83.03
56568;BME280;42456;49.956;20.004;2023-02-13T02:34:05;100191.03;;;2.21;83.56
56568;BME280;42456;49.956;20.004;2023-02-13T02:39:39;100188.27;;;2.26;83.24
56568;BME280;42456;49.956;20.004;2023-02-13T02:47:59;100197.27;;;2.36;83.16
56568;BME280;42456;49.956;20.004;2023-02-13T02:51:05;100198.73;;;2.40;83.25
56568;BME280;42456;49.956;20.004;2023-02-13T02:54:00;100195.62;;;2.43;82.96
56568;BME280;42456;49.956;20.004;2023-02-13T02:56:35;100198.36;;;2.46;82.87
56568;BME280;42456;49.956;20.004;2023-02-13T02:59:10;100196.33;;;2.48;82.89
56568;BME280;42456;49.956;20.004;2023-02-13T03:01:53;100200.30;;;2.50;82.77
56568;BME280;42456;49.956;20.004;2023-02-13T03:04:39;100204.47;;;2.51;83.12
56568;BME280;42456;49.956;20.004;2023-02-13T03:07:21;100206.05;;;2.52;82.47
56568;BME280;42456;49.956;20.004;2023-02-13T03:09:51;100204.31;;;2.53;82.57
56568;BME280;42456;49.956;20.004;2023-02-13T03:12:51;100197.17;;;2.53;82.66
56568;BME280;42456;49.956;20.004;2023-02-13T03:15:36;100196.14;;;2.51;82.41
56568;BME280;42456;49.956;20.004;2023-02-13T03:18:24;100197.91;;;2.48;82.22
56568;BME280;42456;49.956;20.004;2023-02-13T03:21:12;100193.27;;;2.45;82.25
56568;BME280;42456;49.956;20.004;2023-02-13T03:30:18;100194.08;;;2.30;81.59
56568;BME280;42456;49.956;20.004;2023-02-13T03:35:48;100203.24;;;2.10;82.25
56568;BME280;42456;49.956;20.004;2023-02-13T03:41:40;100211.52;;;2.00;82.34
56568;BME280;42456;49.956;20.004;2023-02-13T03:47:05;100213.81;;;1.96;82.64
56568;BME280;42456;49.956;20.004;2023-02-13T03:49:43;100219.32;;;1.96;82.83
56568;BME280;42456;49.956;20.004;2023-02-13T03:52:35;100219.05;;;1.95;82.66
56568;BME280;42456;49.956;20.004;2023-02-13T03:55:31;100229.54;;;1.97;83.04
56568;BME280;42456;49.956;20.004;2023-02-13T03:58:27;100230.94;;;1.98;83.45
56568;BME280;42456;49.956;20.004;2023-02-13T04:01:11;100231.34;;;1.98;83.24
56568;BME280;42456;49.956;20.004;2023-02-13T04:03:56;100225.41;;;1.99;83.11
56568;BME280;42456;49.956;20.004;2023-02-13T04:07:10;100224.73;;;2.00;83.59
56568;BME280;42456;49.956;20.004;2023-02-13T04:09:17;100222.73;;;2.01;83.17
56568;BME280;42456;49.956;20.004;2023-02-13T04:11:48;100224.31;;;2.02;83.14
56568;BME280;42456;49.956;20.004;2023-02-13T04:14:32;100221.18;;;2.04;83.62
56568;BME280;42456;49.956;20.004;2023-02-13T04:17:05;100221.19;;;2.06;83.67
56568;BME280;42456;49.956;20.004;2023-02-13T04:19:34;100226.13;;;2.09;83.53
56568;BME280;42456;49.956;20.004;2023-02-13T04:22:01;100227.52;;;2.11;84.11
56568;BME280;42456;49.956;20.004;2023-02-13T04:24:29;100225.80;;;2.14;84.18
56568;BME280;42456;49.956;20.004;2023-02-13T04:26:56;100223.39;;;2.18;84.20
56568;BME280;42456;49.956;20.004;2023-02-13T04:29:25;100218.83;;;2.20;84.47
56568;BME280;42456;49.956;20.004;2023-02-13T04:31:52;100217.97;;;2.22;84.61
56568;BME280;42456;49.956;20.004;2023-02-13T04:34:19;100216.23;;;2.24;84.69
56568;BME280;42456;49.956;20.004;2023-02-13T04:36:46;100216.27;;;2.26;84.84
56568;BME280;42456;49.956;20.004;2023-02-13T04:39:13;100219.27;;;2.27;85.01
56568;BME280;42456;49.956;20.004;2023-02-13T04:41:40;100221.77;;;2.28;85.36
56568;BME280;42456;49.956;20.004;2023-02-13T04:44:06;100221.85;;;2.30;85.99
56568;BME280;42456;49.956;20.004;2023-02-13T04:46:33;100222.27;;;2.32;86.11
56568;BME280;42456;49.956;20.004;2023-02-13T04:49:00;100218.22;;;2.33;86.41
56568;BME280;42456;49.956;20.004;2023-02-13T04:51:27;100218.89;;;2.34;86.52
56568;BME280;42456;49.956;20.004;2023-02-13T04:53:53;100221.77;;;2.35;86.64
56568;BME280;42456;49.956;20.004;2023-02-13T04:56:20;100220.45;;;2.37;86.61
56568;BME280;42456;49.956;20.004;2023-02-13T04:58:47;100223.44;;;2.38;86.76
56568;BME280;42456;49.956;20.004;2023-02-13T05:01:15;100221.92;;;2.40;87.01
56568;BME280;42456;49.956;20.004;2023-02-13T05:03:43;100222.42;;;2.40;87.29
56568;BME280;42456;49.956;20.004;2023-02-13T05:06:09;100221.45;;;2.42;87.38
56568;BME280;42456;49.956;20.004;2023-02-13T05:08:36;100216.82;;;2.43;87.17
56568;BME280;42456;49.956;20.004;2023-02-13T05:11:03;100218.06;;;2.45;87.39
56568;BME280;42456;49.956;20.004;2023-02-13T05:13:30;100220.08;;;2.46;87.74
56568;BME280;42456;49.956;20.004;2023-02-13T05:15:57;100222.17;;;2.47;87.60
56568;BME280;42456;49.956;20.004;2023-02-13T05:18:24;100220.21;;;2.49;87.68
56568;BME280;42456;49.956;20.004;2023-02-13T05:20:51;100216.54;;;2.51;87.99
56568;BME280;42456;49.956;20.004;2023-02-13T05:23:32;100216.02;;;2.52;87.86
56568;BME280;42456;49.956;20.004;2023-02-13T05:25:58;100219.30;;;2.54;88.00
56568;BME280;42456;49.956;20.004;2023-02-13T05:28:25;100224.83;;;2.56;87.93
56568;BME280;42456;49.956;20.004;2023-02-13T05:31:06;100222.80;;;2.58;88.01
56568;BME280;42456;49.956;20.004;2023-02-13T05:33:33;100223.58;;;2.59;87.96
56568;BME280;42456;49.956;20.004;2023-02-13T05:36:00;100220.39;;;2.62;88.26
56568;BME280;42456;49.956;20.004;2023-02-13T05:38:26;100218.96;;;2.64;88.58
56568;BME280;42456;49.956;20.004;2023-02-13T05:40:53;100221.61;;;2.68;88.21
56568;BME280;42456;49.956;20.004;2023-02-13T05:43:21;100217.05;;;2.71;88.18
56568;BME280;42456;49.956;20.004;2023-02-13T05:45:48;100217.44;;;2.74;88.47
56568;BME280;42456;49.956;20.004;2023-02-13T05:48:14;100218.20;;;2.77;88.10
56568;BME280;42456;49.956;20.004;2023-02-13T05:50:42;100222.08;;;2.79;88.33
56568;BME280;42456;49.956;20.004;2023-02-13T05:53:08;100226.19;;;2.83;88.40
56568;BME280;42456;49.956;20.004;2023-02-13T05:55:35;100232.33;;;2.85;88.65
56568;BME280;42456;49.956;20.004;2023-02-13T05:58:02;100237.17;;;2.88;88.37
56568;BME280;42456;49.956;20.004;2023-02-13T06:00:29;100236.84;;;2.90;88.22
56568;BME280;42456;49.956;20.004;2023-02-13T06:02:55;100237.75;;;2.93;88.64
56568;BME280;42456;49.956;20.004;2023-02-13T06:05:22;100243.28;;;2.95;88.25
56568;BME280;42456;49.956;20.004;2023-02-13T06:07:49;100241.41;;;2.96;88.22
56568;BME280;42456;49.956;20.004;2023-02-13T06:10:16;100238.77;;;2.98;88.69
56568;BME280;42456;49.956;20.004;2023-02-13T06:12:43;100240.06;;;2.99;88.29
56568;BME280;42456;49.956;20.004;2023-02-13T06:15:10;100238.91;;;2.99;88.45
56568;BME280;42456;49.956;20.004;2023-02-13T06:17:37;100234.52;;;3.00;88.65
56568;BME280;42456;49.956;20.004;2023-02-13T06:20:05;100235.02;;;3.01;88.65
56568;BME280;42456;49.956;20.004;2023-02-13T06:22:32;100236.15;;;3.02;88.74
56568;BME280;42456;49.956;20.004;2023-02-13T06:24:59;100241.08;;;3.03;88.47
56568;BME280;42456;49.956;20.004;2023-02-13T06:27:26;100236.58;;;3.04;88.62
56568;BME280;42456;49.956;20.004;2023-02-13T06:29:53;100235.45;;;3.05;88.38
56568;BME280;42456;49.956;20.004;2023-02-13T06:32:20;100242.21;;;3.06;88.54
56568;BME280;42456;49.956;20.004;2023-02-13T06:34:47;100243.08;;;3.08;88.48
56568;BME280;42456;49.956;20.004;2023-02-13T06:37:14;100244.09;;;3.09;88.66
56568;BME280;42456;49.956;20.004;2023-02-13T06:39:41;100245.85;;;3.10;88.73
56568;BME280;42456;49.956;20.004;2023-02-13T06:42:08;100247.96;;;3.11;88.67
56568;BME280;42456;49.956;20.004;2023-02-13T06:44:35;100245.44;;;3.13;88.83
56568;BME280;42456;49.956;20.004;2023-02-13T06:47:02;100250.36;;;3.14;88.57
56568;BME280;42456;49.956;20.004;2023-02-13T06:49:29;100252.19;;;3.15;88.86
56568;BME280;42456;49.956;20.004;2023-02-13T06:51:56;100256.23;;;3.17;88.76
56568;BME280;42456;49.956;20.004;2023-02-13T06:54:23;100253.77;;;3.19;88.73
56568;BME280;42456;49.956;20.004;2023-02-13T06:57:10;100255.11;;;3.21;88.41
56568;BME280;42456;49.956;20.004;2023-02-13T06:59:37;100255.19;;;3.23;88.58
56568;BME280;42456;49.956;20.004;2023-02-13T07:02:04;100251.24;;;3.25;88.82
56568;BME280;42456;49.956;20.004;2023-02-13T07:04:31;100250.00;;;3.27;88.76
56568;BME280;42456;49.956;20.004;2023-02-13T07:06:58;100249.65;;;3.29;88.74
56568;BME280;42456;49.956;20.004;2023-02-13T07:09:25;100252.77;;;3.32;88.73
56568;BME280;42456;49.956;20.004;2023-02-13T07:11:52;100252.08;;;3.34;88.58
56568;BME280;42456;49.956;20.004;2023-02-13T07:14:19;100254.05;;;3.36;88.22
56568;BME280;42456;49.956;20.004;2023-02-13T07:16:46;100255.43;;;3.39;88.64
56568;BME280;42456;49.956;20.004;2023-02-13T07:19:13;100261.27;;;3.41;88.80
56568;BME280;42456;49.956;20.004;2023-02-13T07:21:40;100258.49;;;3.43;88.41
56568;BME280;42456;49.956;20.004;2023-02-13T07:24:07;100254.61;;;3.45;88.64
56568;BME280;42456;49.956;20.004;2023-02-13T07:26:34;100256.59;;;3.48;88.41
56568;BME280;42456;49.956;20.004;2023-02-13T07:29:01;100259.59;;;3.52;88.69
56568;BME280;42456;49.956;20.004;2023-02-13T07:31:38;100261.31;;;3.56;88.77
56568;BME280;42456;49.956;20.004;2023-02-13T07:34:06;100262.25;;;3.60;88.70
56568;BME280;42456;49.956;20.004;2023-02-13T07:36:33;100255.95;;;3.64;88.58
56568;BME280;42456;49.956;20.004;2023-02-13T07:39:00;100259.27;;;3.65;88.68
56568;BME280;42456;49.956;20.004;2023-02-13T07:41:27;100258.45;;;3.66;88.50
56568;BME280;42456;49.956;20.004;2023-02-13T07:43:54;100256.98;;;3.68;88.50
56568;BME280;42456;49.956;20.004;2023-02-13T07:46:21;100252.25;;;3.71;88.29
56568;BME280;42456;49.956;20.004;2023-02-13T07:48:50;100252.17;;;3.74;88.53
56568;BME280;42456;49.956;20.004;2023-02-13T07:51:17;100247.85;;;3.77;88.66
56568;BME280;42456;49.956;20.004;2023-02-13T07:53:44;100246.98;;;3.81;88.40
56568;BME280;42456;49.956;20.004;2023-02-13T07:56:11;100246.27;;;3.87;88.78
56568;BME280;42456;49.956;20.004;2023-02-13T07:58:38;100251.42;;;3.94;88.87
56568;BME280;42456;49.956;20.004;2023-02-13T08:01:07;100252.52;;;4.01;88.96
56568;BME280;42456;49.956;20.004;2023-02-13T08:03:36;100251.85;;;4.07;88.47
56568;BME280;42456;49.956;20.004;2023-02-13T08:06:04;100249.31;;;4.14;88.29
56568;BME280;42456;49.956;20.004;2023-02-13T08:08:31;100245.77;;;4.24;88.62
56568;BME280;42456;49.956;20.004;2023-02-13T08:11:06;100243.65;;;4.34;88.72
56568;BME280;42456;49.956;20.004;2023-02-13T08:13:48;100245.41;;;4.44;88.05
56568;BME280;42456;49.956;20.004;2023-02-13T08:16:15;100241.85;;;4.51;88.49
56568;BME280;42456;49.956;20.004;2023-02-13T08:18:42;100239.72;;;4.56;88.40
56568;BME280;42456;49.956;20.004;2023-02-13T08:21:09;100239.73;;;4.60;87.73
56568;BME280;42456;49.956;20.004;2023-02-13T08:23:35;100236.80;;;4.64;87.54
56568;BME280;42456;49.956;20.004;2023-02-13T08:26:02;100240.25;;;4.70;87.60
56568;BME280;42456;49.956;20.004;2023-02-13T08:28:29;100239.66;;;4.73;87.69
56568;BME280;42456;49.956;20.004;2023-02-13T08:30:56;100239.43;;;4.75;87.44
56568;BME280;42456;49.956;20.004;2023-02-13T08:33:23;100243.02;;;4.75;86.94
56568;BME280;42456;49.956;20.004;2023-02-13T08:35:50;100241.05;;;4.77;86.80
56568;BME280;42456;49.956;20.004;2023-02-13T08:38:17;100241.41;;;4.79;87.18
56568;BME280;42456;49.956;20.004;2023-02-13T08:40:44;100239.19;;;4.83;86.95
56568;BME280;42456;49.956;20.004;2023-02-13T08:43:10;100241.86;;;4.87;86.80
56568;BME280;42456;49.956;20.004;2023-02-13T08:45:37;100242.19;;;4.92;86.43
56568;BME280;42456;49.956;20.004;2023-02-13T08:48:04;100243.44;;;4.96;86.65
56568;BME280;42456;49.956;20.004;2023-02-13T08:50:33;100242.08;;;5.01;86.88
56568;BME280;42456;49.956;20.004;2023-02-13T08:53:02;100242.38;;;5.08;86.19
56568;BME280;42456;49.956;20.004;2023-02-13T08:55:29;100239.50;;;5.16;86.59
56568;BME280;42456;49.956;20.004;2023-02-13T08:58:01;100237.69;;;5.23;86.93
56568;BME280;42456;49.956;20.004;2023-02-13T09:00:29;100236.36;;;5.32;86.73
56568;BME280;42456;49.956;20.004;2023-02-13T09:03:00;100226.08;;;5.41;86.70
56568;BME280;42456;49.956;20.004;2023-02-13T09:05:28;100225.08;;;5.50;86.34
56568;BME280;42456;49.956;20.004;2023-02-13T09:08:01;100229.09;;;5.60;86.17
56568;BME280;42456;49.956;20.004;2023-02-13T09:10:30;100228.61;;;5.69;85.73
56568;BME280;42456;49.956;20.004;2023-02-13T09:12:58;100231.13;;;5.78;85.49
56568;BME280;42456;49.956;20.004;2023-02-13T09:15:24;100233.03;;;5.88;84.99
56568;BME280;42456;49.956;20.004;2023-02-13T09:17:52;100227.14;;;5.97;85.01
56568;BME280;42456;49.956;20.004;2023-02-13T09:20:18;100227.30;;;6.02;84.83
56568;BME280;42456;49.956;20.004;2023-02-13T09:22:45;100233.56;;;6.08;84.62
56568;BME280;42456;49.956;20.004;2023-02-13T09:25:12;100236.16;;;6.21;84.82
56568;BME280;42456;49.956;20.004;2023-02-13T09:27:39;100232.66;;;6.36;84.91
56568;BME280;42456;49.956;20.004;2023-02-13T09:30:09;100230.38;;;6.49;84.83
56568;BME280;42456;49.956;20.004;2023-02-13T09:32:36;100220.26;;;6.61;84.47
56568;BME280;42456;49.956;20.004;2023-02-13T09:35:03;100218.84;;;6.70;83.99
56568;BME280;42456;49.956;20.004;2023-02-13T09:37:32;100220.77;;;6.76;83.45
56568;BME280;42456;49.956;20.004;2023-02-13T09:39:58;100216.52;;;6.81;83.02
56568;BME280;42456;49.956;20.004;2023-02-13T09:42:28;100220.75;;;6.83;82.71
56568;BME280;42456;49.956;20.004;2023-02-13T09:45:00;100227.98;;;6.85;82.41
56568;BME280;42456;49.956;20.004;2023-02-13T09:47:42;100231.38;;;6.87;82.16
56568;BME280;42456;49.956;20.004;2023-02-13T09:50:20;100235.05;;;6.93;81.85
56568;BME280;42456;49.956;20.004;2023-02-13T09:52:51;100230.17;;;6.99;81.53
56568;BME280;42456;49.956;20.004;2023-02-13T09:55:27;100226.97;;;7.00;81.48
56568;BME280;42456;49.956;20.004;2023-02-13T10:00:53;100220.73;;;7.12;80.57
56568;BME280;42456;49.956;20.004;2023-02-13T10:03:41;100221.58;;;7.18;80.36
56568;BME280;42456;49.956;20.004;2023-02-13T10:06:12;100224.44;;;7.24;80.07
56568;BME280;42456;49.956;20.004;2023-02-13T10:21:45;100207.11;;;7.38;78.81
56568;BME280;42456;49.956;20.004;2023-02-13T10:24:25;100202.60;;;7.35;78.71
56568;BME280;42456;49.956;20.004;2023-02-13T10:26:54;100192.85;;;7.33;78.37
56568;BME280;42456;49.956;20.004;2023-02-13T10:30:02;100185.30;;;7.32;78.34
56568;BME280;42456;49.956;20.004;2023-02-13T10:35:21;100179.96;;;7.33;78.59
56568;BME280;42456;49.956;20.004;2023-02-13T10:37:53;100177.45;;;7.36;78.03
56568;BME280;42456;49.956;20.004;2023-02-13T10:40:26;100176.61;;;7.39;77.84
56568;BME280;42456;49.956;20.004;2023-02-13T10:43:07;100173.14;;;7.41;77.77
56568;BME280;42456;49.956;20.004;2023-02-13T10:45:50;100169.46;;;7.44;77.60
56568;BME280;42456;49.956;20.004;2023-02-13T10:51:22;100164.69;;;7.45;77.32
56568;BME280;42456;49.956;20.004;2023-02-13T11:02:30;100148.25;;;7.59;77.20
56568;BME280;42456;49.956;20.004;2023-02-13T11:05:17;100142.85;;;7.64;77.01
56568;BME280;42456;49.956;20.004;2023-02-13T11:07:45;100144.36;;;7.66;76.78
56568;BME280;42456;49.956;20.004;2023-02-13T11:10:16;100148.00;;;7.66;76.96
56568;BME280;42456;49.956;20.004;2023-02-13T11:12:44;100145.70;;;7.66;76.35
56568;BME280;42456;49.956;20.004;2023-02-13T11:15:26;100144.95;;;7.64;76.18
56568;BME280;42456;49.956;20.004;2023-02-13T11:17:59;100144.23;;;7.59;76.17
56568;BME280;42456;49.956;20.004;2023-02-13T11:20:36;100144.16;;;7.52;76.19
56568;BME280;42456;49.956;20.004;2023-02-13T11:23:33;100137.49;;;7.45;76.06
56568;BME280;42456;49.956;20.004;2023-02-13T11:26:08;100139.69;;;7.42;76.22
56568;BME280;42456;49.956;20.004;2023-02-13T11:28:56;100135.34;;;7.40;76.50
56568;BME280;42456;49.956;20.004;2023-02-13T11:31:31;100137.31;;;7.38;76.17
56568;BME280;42456;49.956;20.004;2023-02-13T11:34:21;100137.19;;;7.35;76.46
56568;BME280;42456;49.956;20.004;2023-02-13T11:36:54;100132.57;;;7.31;76.43
56568;BME280;42456;49.956;20.004;2023-02-13T11:39:33;100141.78;;;7.30;76.74
56568;BME280;42456;49.956;20.004;2023-02-13T11:42:00;100140.16;;;7.28;76.47
56568;BME280;42456;49.956;20.004;2023-02-13T11:44:31;100143.26;;;7.27;76.59
56568;BME280;42456;49.956;20.004;2023-02-13T11:46:59;100142.61;;;7.26;76.27
56568;BME280;42456;49.956;20.004;2023-02-13T11:49:30;100144.48;;;7.25;76.61
56568;BME280;42456;49.956;20.004;2023-02-13T11:52:02;100139.73;;;7.27;76.29
56568;BME280;42456;49.956;20.004;2023-02-13T11:59:57;100138.76;;;7.27;76.11
56568;BME280;42456;49.956;20.004;2023-02-13T12:02:29;100134.43;;;7.27;75.89
56568;BME280;42456;49.956;20.004;2023-02-13T12:05:18;100132.38;;;7.25;75.95
56568;BME280;42456;49.956;20.004;2023-02-13T12:07:45;100133.19;;;7.22;76.05
56568;BME280;42456;49.956;20.004;2023-02-13T12:12:52;100130.86;;;7.16;75.94
56568;BME280;42456;49.956;20.004;2023-02-13T12:15:34;100136.09;;;7.13;76.22
56568;BME280;42456;49.956;20.004;2023-02-13T12:18:25;100127.98;;;7.09;76.38
56568;BME280;42456;49.956;20.004;2023-02-13T12:21:14;100121.85;;;7.01;76.30
56568;BME280;42456;49.956;20.004;2023-02-13T12:23:55;100112.14;;;6.97;76.58
56568;BME280;42456;49.956;20.004;2023-02-13T12:29:13;100108.94;;;6.98;76.59
56568;BME280;42456;49.956;20.004;2023-02-13T12:40:37;100111.48;;;6.92;77.08
56568;BME280;42456;49.956;20.004;2023-02-13T12:46:05;100110.16;;;6.94;77.24
56568;BME280;42456;49.956;20.004;2023-02-13T12:48:47;100105.55;;;6.95;77.52
56568;BME280;42456;49.956;20.004;2023-02-13T13:02:14;100098.98;;;7.09;77.20
56568;BME280;42456;49.956;20.004;2023-02-13T13:13:13;100096.70;;;6.92;76.99
56568;BME280;42456;49.956;20.004;2023-02-13T13:18:41;100094.92;;;6.88;76.70
56568;BME280;42456;49.956;20.004;2023-02-13T13:26:46;100091.84;;;6.90;76.69
56568;BME280;42456;49.956;20.004;2023-02-13T13:29:37;100092.53;;;6.89;76.68
56568;BME280;42456;49.956;20.004;2023-02-13T13:32:07;100097.08;;;6.86;76.89
56568;BME280;42456;49.956;20.004;2023-02-13T13:34:38;100098.43;;;6.83;76.86
56568;BME280;42456;49.956;20.004;2023-02-13T13:42:52;100089.48;;;6.70;77.03
56568;BME280;42456;49.956;20.004;2023-02-13T13:45:47;100090.58;;;6.63;77.04
56568;BME280;42456;49.956;20.004;2023-02-13T13:51:08;100096.60;;;6.54;77.81
56568;BME280;42456;49.956;20.004;2023-02-13T14:05:07;100090.79;;;6.46;78.53
56568;BME280;42456;49.956;20.004;2023-02-13T14:07:38;100089.86;;;6.44;78.55
56568;BME280;42456;49.956;20.004;2023-02-13T14:32:22;100059.06;;;6.26;79.65
56568;BME280;42456;49.956;20.004;2023-02-13T14:34:21;100053.89;;;6.26;79.73
56568;BME280;42456;49.956;20.004;2023-02-13T14:37:12;100056.27;;;6.24;79.96
56568;BME280;42456;49.956;20.004;2023-02-13T14:42:38;100047.34;;;6.22;80.22
56568;BME280;42456;49.956;20.004;2023-02-13T14:45:14;100044.40;;;6.22;80.35
56568;BME280;42456;49.956;20.004;2023-02-13T14:47:47;100041.06;;;6.21;79.97
56568;BME280;42456;49.956;20.004;2023-02-13T14:50:28;100027.00;;;6.17;80.46
56568;BME280;42456;49.956;20.004;2023-02-13T14:53:03;100025.05;;;6.14;80.52
56568;BME280;42456;49.956;20.004;2023-02-13T14:55:42;100013.91;;;6.11;80.45
56568;BME280;42456;49.956;20.004;2023-02-13T14:58:21;100018.96;;;6.06;80.45
56568;BME280;42456;49.956;20.004;2023-02-13T15:00:56;100024.64;;;6.00;80.57
56568;BME280;42456;49.956;20.004;2023-02-13T15:03:36;100034.00;;;5.95;80.76
56568;BME280;42456;49.956;20.004;2023-02-13T15:06:10;100035.60;;;5.94;80.85
56568;BME280;42456;49.956;20.004;2023-02-13T15:08:47;100023.26;;;5.93;81.20
56568;BME280;42456;49.956;20.004;2023-02-13T15:11:37;100018.60;;;5.93;81.35
56568;BME280;42456;49.956;20.004;2023-02-13T15:16:53;100005.12;;;5.98;81.15
56568;BME280;42456;49.956;20.004;2023-02-13T15:19:22;99996.38;;;6.00;81.34
56568;BME280;42456;49.956;20.004;2023-02-13T15:21:58;99996.42;;;6.01;81.48
56568;BME280;42456;49.956;20.004;2023-02-13T15:24:32;99995.20;;;5.99;81.29
56568;BME280;42456;49.956;20.004;2023-02-13T15:27:03;99995.89;;;5.99;81.61
56568;BME280;42456;49.956;20.004;2023-02-13T15:29:30;99999.17;;;5.96;81.67
56568;BME280;42456;49.956;20.004;2023-02-13T15:32:27;100002.71;;;5.90;81.71
56568;BME280;42456;49.956;20.004;2023-02-13T15:34:54;100004.89;;;5.83;81.48
56568;BME280;42456;49.956;20.004;2023-02-13T15:37:23;100007.45;;;5.78;81.69
56568;BME280;42456;49.956;20.004;2023-02-13T15:39:50;100011.32;;;5.72;81.87
56568;BME280;42456;49.956;20.004;2023-02-13T15:42:17;100010.73;;;5.67;81.71
56568;BME280;42456;49.956;20.004;2023-02-13T15:44:47;100015.66;;;5.63;81.84
56568;BME280;42456;49.956;20.004;2023-02-13T15:47:34;100020.86;;;5.60;82.23
56568;BME280;42456;49.956;20.004;2023-02-13T15:50:02;100021.41;;;5.57;81.90
56568;BME280;42456;49.956;20.004;2023-02-13T15:52:37;100025.64;;;5.57;81.92
56568;BME280;42456;49.956;20.004;2023-02-13T15:55:05;100019.39;;;5.56;81.94
56568;BME280;42456;49.956;20.004;2023-02-13T15:57:32;100021.73;;;5.56;82.25